createdAt,value
2023-01-24T00:01:20.766Z,30.57
2023-01-24T00:03:49.053Z,28.47
2023-01-24T00:06:17.654Z,30.23
2023-01-24T00:08:45.891Z,27.63
2023-01-24T00:11:15.150Z,27.73
2023-01-24T00:13:43.060Z,26.30
2023-01-24T00:16:15.369Z,32.80
2023-01-24T00:18:43.840Z,26.40
2023-01-24T00:21:14.206Z,32.63
2023-01-24T00:23:43.410Z,26.40
2023-01-24T00:26:11.903Z,27.53
2023-01-24T00:28:39.985Z,23.80
2023-01-24T00:31:08.109Z,25.40
2023-01-24T00:33:37.396Z,27.73
2023-01-24T00:36:06.129Z,32.57
2023-01-24T00:38:33.988Z,28.23
2023-01-24T00:41:01.937Z,29.47
2023-01-24T00:43:30.725Z,30.43
2023-01-24T00:45:59.037Z,33.27
2023-01-24T00:48:27.279Z,23.07
2023-01-24T00:50:56.716Z,29.87
2023-01-24T00:53:27.177Z,30.80
2023-01-24T00:55:56.092Z,29.23
2023-01-24T00:58:25.029Z,31.27
2023-01-24T01:00:56.181Z,32.17
2023-01-24T01:03:24.287Z,30.23
2023-01-24T01:05:52.172Z,31.47
2023-01-24T01:08:21.585Z,28.07
2023-01-24T01:10:49.543Z,31.90
2023-01-24T01:13:17.280Z,31.47
2023-01-24T01:15:48.358Z,28.43
2023-01-24T01:18:16.568Z,29.23
2023-01-24T01:20:50.561Z,27.03
2023-01-24T01:23:18.555Z,26.20
2023-01-24T01:25:47.854Z,23.07
2023-01-24T01:28:15.820Z,22.27
2023-01-24T01:30:43.652Z,26.33
2023-01-24T01:33:11.569Z,22.33
2023-01-24T01:35:39.612Z,26.90
2023-01-24T01:38:08.074Z,20.87
2023-01-24T01:40:37.085Z,24.70
2023-01-24T01:43:14.207Z,22.23
2023-01-24T01:45:44.373Z,23.83
2023-01-24T01:48:20.899Z,25.43
2023-01-24T01:50:55.165Z,21.70
2023-01-24T01:53:25.818Z,18.37
2023-01-24T01:55:59.824Z,16.17
2023-01-24T01:58:29.668Z,19.30
2023-01-24T02:00:57.662Z,19.63
2023-01-24T02:03:43.731Z,16.87
2023-01-24T02:06:35.159Z,15.67
2023-01-24T02:09:06.680Z,12.97
2023-01-24T02:11:40.859Z,15.03
2023-01-24T02:14:30.610Z,13.23
2023-01-24T02:16:58.598Z,14.17
2023-01-24T02:19:42.038Z,14.03
2023-01-24T02:22:17.600Z,12.60
2023-01-24T02:24:52.905Z,14.10
2023-01-24T02:27:22.695Z,14.37
2023-01-24T02:29:51.544Z,12.13
2023-01-24T02:35:25.729Z,13.70
2023-01-24T02:37:54.124Z,12.43
2023-01-24T02:40:23.043Z,12.00
2023-01-24T02:42:53.902Z,12.00
2023-01-24T02:45:25.787Z,12.03
2023-01-24T02:47:58.088Z,11.23
2023-01-24T02:50:29.404Z,13.10
2023-01-24T02:53:14.879Z,11.97
2023-01-24T02:55:56.663Z,13.23
2023-01-24T02:58:26.195Z,14.77
2023-01-24T03:00:54.179Z,10.77
2023-01-24T03:03:22.316Z,10.37
2023-01-24T03:05:57.775Z,10.87
2023-01-24T03:08:26.608Z,11.63
2023-01-24T03:10:54.731Z,15.00
2023-01-24T03:13:40.928Z,11.23
2023-01-24T03:16:27.869Z,10.93
2023-01-24T03:19:13.269Z,11.30
2023-01-24T03:21:58.871Z,12.00
2023-01-24T03:24:44.857Z,13.27
2023-01-24T03:27:30.013Z,12.53
2023-01-24T03:30:15.363Z,10.43
2023-01-24T03:33:02.224Z,11.87
2023-01-24T03:35:31.058Z,11.23
2023-01-24T03:38:16.870Z,14.60
2023-01-24T03:40:44.944Z,15.00
2023-01-24T03:43:13.349Z,14.97
2023-01-24T03:45:41.952Z,10.87
2023-01-24T03:48:14.091Z,11.07
2023-01-24T03:51:01.284Z,12.50
2023-01-24T03:53:31.137Z,10.50
2023-01-24T03:56:00.929Z,11.43
2023-01-24T03:58:30.326Z,12.10
2023-01-24T04:00:59.126Z,10.87
2023-01-24T04:03:28.577Z,11.20
2023-01-24T04:05:56.494Z,11.10
2023-01-24T04:08:24.405Z,9.60
2023-01-24T04:10:52.357Z,9.93
2023-01-24T04:13:20.217Z,10.83
2023-01-24T04:15:48.056Z,9.20
2023-01-24T04:18:16.068Z,11.30
2023-01-24T04:20:45.397Z,10.30
2023-01-24T04:23:13.722Z,10.83
2023-01-24T04:25:41.700Z,12.07
2023-01-24T04:28:09.661Z,10.67
2023-01-24T04:30:37.570Z,11.17
2023-01-24T04:33:05.684Z,11.93
2023-01-24T04:35:33.841Z,9.67
2023-01-24T04:38:04.103Z,11.27
2023-01-24T04:40:32.207Z,12.37
2023-01-24T04:43:00.521Z,11.43
2023-01-24T04:45:28.468Z,11.00
2023-01-24T04:47:56.429Z,11.20
2023-01-24T04:50:24.491Z,9.43
2023-01-24T04:52:52.349Z,9.83
2023-01-24T04:55:22.114Z,9.87
2023-01-24T04:57:50.139Z,11.17
2023-01-24T05:00:21.428Z,11.30
2023-01-24T05:02:49.451Z,10.97
2023-01-24T05:05:17.809Z,10.67
2023-01-24T05:07:45.896Z,10.23
2023-01-24T05:10:15.871Z,10.77
2023-01-24T05:12:45.420Z,10.17
2023-01-24T05:15:13.428Z,11.73
2023-01-24T05:17:41.313Z,12.20
2023-01-24T05:20:10.888Z,12.37
2023-01-24T05:22:39.158Z,12.27
2023-01-24T05:25:08.433Z,12.90
2023-01-24T05:27:36.514Z,13.50
2023-01-24T05:30:07.823Z,12.37
2023-01-24T05:32:36.117Z,11.90
2023-01-24T05:35:04.823Z,11.57
2023-01-24T05:37:33.736Z,13.30
2023-01-24T05:40:01.989Z,12.90
2023-01-24T05:42:30.275Z,11.87
2023-01-24T05:44:58.593Z,13.03
2023-01-24T05:47:28.218Z,12.13
2023-01-24T05:49:59.321Z,12.63
2023-01-24T05:52:27.490Z,13.30
2023-01-24T05:54:55.595Z,14.63
2023-01-24T05:57:23.765Z,12.93
2023-01-24T05:59:51.895Z,13.43
2023-01-24T06:02:20.008Z,14.30
2023-01-24T06:04:49.487Z,14.63
2023-01-24T06:07:17.658Z,13.50
2023-01-24T06:09:45.517Z,12.93
2023-01-24T06:12:13.432Z,13.50
2023-01-24T06:14:41.457Z,14.70
2023-01-24T06:17:09.430Z,11.87
2023-01-24T06:19:38.304Z,15.00
2023-01-24T06:22:18.459Z,14.43
2023-01-24T06:24:47.114Z,14.63
2023-01-24T06:27:15.796Z,13.17
2023-01-24T06:29:44.516Z,15.40
2023-01-24T06:32:27.952Z,16.30
2023-01-24T06:35:16.626Z,15.10
2023-01-24T06:37:49.431Z,13.80
2023-01-24T06:40:20.700Z,16.33
2023-01-24T06:42:49.416Z,14.93
2023-01-24T06:45:17.878Z,15.17
2023-01-24T06:47:46.350Z,15.77
2023-01-24T06:50:17.443Z,15.00
2023-01-24T06:52:48.624Z,14.90
2023-01-24T06:55:17.124Z,16.50
2023-01-24T06:57:47.468Z,15.67
2023-01-24T07:00:16.870Z,14.27
2023-01-24T07:02:44.693Z,14.97
2023-01-24T07:05:12.733Z,18.93
2023-01-24T07:07:40.956Z,15.40
2023-01-24T07:10:12.107Z,14.43
2023-01-24T07:12:40.096Z,14.27
2023-01-24T07:15:08.745Z,17.47
2023-01-24T07:17:37.298Z,16.10
2023-01-24T07:20:06.129Z,18.30
2023-01-24T07:22:35.110Z,17.23
2023-01-24T07:25:03.992Z,15.50
2023-01-24T07:27:36.760Z,14.70
2023-01-24T07:30:06.427Z,16.77
2023-01-24T07:32:34.344Z,15.60
2023-01-24T07:35:02.386Z,13.43
2023-01-24T07:37:31.690Z,15.60
2023-01-24T07:39:59.813Z,15.33
2023-01-24T07:42:27.704Z,15.50
2023-01-24T07:44:58.003Z,15.63
2023-01-24T07:47:27.630Z,15.07
2023-01-24T07:49:55.537Z,15.13
2023-01-24T07:52:23.600Z,14.70
2023-01-24T07:54:51.941Z,16.20
2023-01-24T07:57:19.988Z,15.80
2023-01-24T07:59:48.031Z,14.20
2023-01-24T08:02:17.458Z,16.43
2023-01-24T08:04:45.420Z,17.07
2023-01-24T08:07:19.843Z,15.37
2023-01-24T08:09:49.385Z,17.77
2023-01-24T08:12:18.691Z,16.27
2023-01-24T08:14:46.922Z,18.97
2023-01-24T08:17:15.046Z,17.87
2023-01-24T08:19:59.911Z,20.63
2023-01-24T08:22:28.165Z,20.80
2023-01-24T08:24:56.200Z,22.13
2023-01-24T08:27:24.615Z,16.83
2023-01-24T08:29:52.725Z,20.73
2023-01-24T08:32:20.636Z,19.73
2023-01-24T08:34:50.315Z,18.50
2023-01-24T08:37:19.350Z,19.40
2023-01-24T08:39:47.464Z,19.97
2023-01-24T08:42:15.520Z,18.87
2023-01-24T08:44:43.983Z,19.70
2023-01-24T08:47:12.403Z,27.37
2023-01-24T08:49:40.362Z,27.47
2023-01-24T08:52:10.018Z,25.33
2023-01-24T08:54:38.196Z,27.57
2023-01-24T08:57:07.736Z,26.77
2023-01-24T08:59:35.786Z,25.17
2023-01-24T09:02:05.071Z,28.60
2023-01-24T09:04:33.360Z,26.87
2023-01-24T09:07:01.675Z,23.03
2023-01-24T09:09:31.164Z,28.13
2023-01-24T09:11:59.283Z,29.30
2023-01-24T09:14:27.662Z,25.67
2023-01-24T09:16:56.286Z,32.73
2023-01-24T09:19:25.018Z,32.27
2023-01-24T09:21:55.905Z,28.70
2023-01-24T09:24:23.965Z,29.43
2023-01-24T09:26:53.529Z,31.50
2023-01-24T09:29:21.427Z,33.10
2023-01-24T09:31:50.096Z,29.93
2023-01-24T09:34:18.311Z,31.87
2023-01-24T09:36:49.494Z,24.57
2023-01-24T09:39:17.750Z,27.37
2023-01-24T09:42:16.074Z,30.20
2023-01-24T09:44:47.383Z,30.87
2023-01-24T09:47:21.962Z,28.03
2023-01-24T09:49:55.445Z,27.30
2023-01-24T09:52:31.854Z,29.40
2023-01-24T09:55:05.710Z,27.03
2023-01-24T09:57:51.643Z,26.80
2023-01-24T10:00:24.700Z,31.47
2023-01-24T10:02:53.171Z,31.40
2023-01-24T10:05:24.811Z,30.37
2023-01-24T10:08:08.209Z,27.57
2023-01-24T10:10:49.044Z,31.80
2023-01-24T10:14:32.991Z,29.17
2023-01-24T10:17:43.693Z,29.00
2023-01-24T10:20:33.847Z,33.40
2023-01-24T10:23:18.043Z,29.87
2023-01-24T10:25:56.337Z,30.37
2023-01-24T10:28:28.705Z,28.43
2023-01-24T10:31:06.873Z,26.53
2023-01-24T10:33:43.305Z,26.63
2023-01-24T10:36:16.139Z,28.97
2023-01-24T10:38:44.694Z,21.90
2023-01-24T10:41:21.669Z,25.80
2023-01-24T10:43:56.404Z,21.37
2023-01-24T10:47:17.601Z,30.13
2023-01-24T10:49:52.641Z,23.47
2023-01-24T10:52:22.208Z,22.30
2023-01-24T10:54:54.122Z,22.17
2023-01-24T10:57:43.698Z,20.77
2023-01-24T11:00:31.450Z,24.13
2023-01-24T11:03:01.186Z,19.07
2023-01-24T11:05:41.255Z,20.53
2023-01-24T11:08:20.322Z,17.83
2023-01-24T11:10:48.506Z,16.30
2023-01-24T11:13:36.357Z,19.07
2023-01-24T11:16:07.999Z,17.97
2023-01-24T11:18:38.189Z,17.10
2023-01-24T11:21:10.182Z,15.67
2023-01-24T11:23:38.712Z,18.30
2023-01-24T11:26:09.134Z,16.77
2023-01-24T11:28:39.489Z,16.73
2023-01-24T11:31:19.801Z,15.50
2023-01-24T11:34:02.444Z,19.40
2023-01-24T11:36:42.441Z,15.20
2023-01-24T11:39:18.899Z,16.77
2023-01-24T11:41:53.274Z,14.87
2023-01-24T11:44:43.386Z,15.13
2023-01-24T11:47:16.272Z,15.03
2023-01-24T11:50:23.333Z,14.43
2023-01-24T11:53:04.756Z,14.97
2023-01-24T11:55:42.427Z,14.53
2023-01-24T11:58:30.985Z,14.00
2023-01-24T12:01:07.881Z,14.70
2023-01-24T12:03:54.915Z,15.17
2023-01-24T12:06:32.841Z,12.80
2023-01-24T12:09:19.879Z,17.67
2023-01-24T12:11:56.437Z,15.80
2023-01-24T12:14:47.962Z,13.93
2023-01-24T12:17:30.490Z,15.00
2023-01-24T12:20:28.936Z,16.27
2023-01-24T12:23:01.723Z,13.20
2023-01-24T12:25:35.055Z,16.73
2023-01-24T12:28:06.637Z,13.87
2023-01-24T12:30:40.404Z,15.53
2023-01-24T12:33:19.905Z,13.17
2023-01-24T12:35:51.305Z,19.17
2023-01-24T12:38:23.313Z,13.47
2023-01-24T12:40:58.187Z,13.50
2023-01-24T12:43:34.257Z,13.67
2023-01-24T12:46:14.500Z,12.43
2023-01-24T12:48:48.713Z,15.10
2023-01-24T12:51:23.425Z,13.93
2023-01-24T12:54:08.454Z,16.07
2023-01-24T12:56:48.263Z,13.50
2023-01-24T12:59:21.639Z,12.03
2023-01-24T13:02:07.473Z,15.83
2023-01-24T13:04:45.569Z,13.53
2023-01-24T13:07:25.711Z,15.57
2023-01-24T13:10:02.777Z,13.07
2023-01-24T13:12:33.477Z,12.57
2023-01-24T13:15:04.642Z,11.87
2023-01-24T13:17:56.542Z,10.77
2023-01-24T13:20:50.004Z,12.73
2023-01-24T13:23:39.539Z,11.70
2023-01-24T13:26:25.693Z,12.53
2023-01-24T13:29:09.365Z,12.07
2023-01-24T13:31:48.615Z,12.87
2023-01-24T13:34:21.345Z,11.33
2023-01-24T13:36:52.505Z,11.20
2023-01-24T13:39:33.852Z,11.80
2023-01-24T13:42:08.063Z,13.27
2023-01-24T13:44:40.165Z,12.00
2023-01-24T13:47:38.459Z,11.10
2023-01-24T13:50:20.380Z,14.20
2023-01-24T13:52:51.218Z,10.07
2023-01-24T13:55:58.536Z,13.80
2023-01-24T13:58:35.854Z,11.37
2023-01-24T14:01:05.911Z,10.30
2023-01-24T14:03:37.638Z,12.37
2023-01-24T14:06:16.611Z,11.50
2023-01-24T14:09:03.786Z,12.93
2023-01-24T14:11:39.022Z,10.53
2023-01-24T14:14:39.201Z,12.67
2023-01-24T14:17:49.644Z,12.03
2023-01-24T14:20:32.360Z,11.67
2023-01-24T14:23:03.574Z,11.60
2023-01-24T14:25:44.429Z,11.30
2023-01-24T14:28:19.323Z,12.90
2023-01-24T14:30:50.786Z,12.87
2023-01-24T14:33:45.765Z,13.20
2023-01-24T14:36:22.678Z,11.57
2023-01-24T14:38:50.569Z,11.60
2023-01-24T14:41:24.360Z,16.30
2023-01-24T14:43:52.638Z,9.30
2023-01-24T14:46:24.134Z,10.93
2023-01-24T14:48:53.658Z,14.10
2023-01-24T14:51:24.977Z,13.47
2023-01-24T14:53:54.905Z,13.43
2023-01-24T14:56:25.656Z,11.93
2023-01-24T14:58:55.890Z,10.70
2023-01-24T15:01:34.873Z,14.63
2023-01-24T15:04:05.541Z,11.37
2023-01-24T15:06:35.727Z,12.67
2023-01-24T15:09:04.616Z,11.20
2023-01-24T15:11:37.131Z,12.27
2023-01-24T15:14:07.586Z,12.90
2023-01-24T15:16:37.972Z,12.67
2023-01-24T15:19:12.784Z,14.80
2023-01-24T15:21:42.246Z,9.87
2023-01-24T15:24:21.627Z,10.93
2023-01-24T15:26:49.569Z,10.80
2023-01-24T15:29:45.800Z,11.67
2023-01-24T15:32:41.755Z,10.70
2023-01-24T15:35:39.655Z,11.23
2023-01-24T15:38:17.398Z,13.17
2023-01-24T15:40:51.150Z,12.80
2023-01-24T15:43:40.353Z,12.00
2023-01-24T15:46:28.293Z,13.37
2023-01-24T15:49:00.037Z,12.87
2023-01-24T15:51:37.659Z,13.13
2023-01-24T15:54:11.925Z,12.13
2023-01-24T15:56:51.804Z,11.63
2023-01-24T15:59:22.963Z,11.27
2023-01-24T16:01:50.989Z,13.57
2023-01-24T16:04:21.532Z,13.37
2023-01-24T16:06:51.547Z,10.67
2023-01-24T16:09:19.815Z,9.80
2023-01-24T16:11:49.693Z,11.40
2023-01-24T16:14:21.154Z,11.23
2023-01-24T16:16:50.713Z,11.43
2023-01-24T16:19:20.937Z,10.63
2023-01-24T16:21:58.768Z,10.80
2023-01-24T16:24:31.915Z,11.80
2023-01-24T16:27:01.820Z,10.53
2023-01-24T16:29:31.817Z,13.13
2023-01-24T16:31:59.680Z,12.03
2023-01-24T16:34:27.592Z,11.63
2023-01-24T16:36:56.904Z,12.90
2023-01-24T16:39:25.026Z,12.87
2023-01-24T16:41:53.474Z,11.93
2023-01-24T16:44:21.356Z,13.70
2023-01-24T16:46:51.131Z,12.37
2023-01-24T16:49:19.474Z,14.10
2023-01-24T16:51:48.014Z,14.13
2023-01-24T16:54:17.172Z,12.17
2023-01-24T16:56:46.064Z,13.10
2023-01-24T16:59:14.114Z,12.53
2023-01-24T17:01:42.742Z,13.37
2023-01-24T17:04:14.229Z,14.47
2023-01-24T17:06:42.133Z,12.40
2023-01-24T17:09:11.294Z,11.63
2023-01-24T17:11:40.536Z,13.23
2023-01-24T17:14:08.429Z,15.47
2023-01-24T17:16:36.249Z,11.63
2023-01-24T17:19:04.394Z,14.13
2023-01-24T17:21:32.415Z,12.67
2023-01-24T17:24:00.482Z,13.40
2023-01-24T17:26:28.505Z,12.53
2023-01-24T17:28:57.758Z,14.53
2023-01-24T17:31:26.543Z,11.70
2023-01-24T17:33:57.646Z,13.17
2023-01-24T17:36:25.761Z,14.80
2023-01-24T17:38:54.924Z,12.57
2023-01-24T17:41:24.152Z,10.97
2023-01-24T17:43:53.509Z,13.67
2023-01-24T17:46:25.898Z,14.00
2023-01-24T17:48:53.830Z,13.33
2023-01-24T17:51:26.128Z,10.77
2023-01-24T17:53:55.166Z,13.77
2023-01-24T17:56:23.016Z,15.23
2023-01-24T17:58:50.829Z,13.20
2023-01-24T18:01:19.108Z,15.07
2023-01-24T18:03:48.773Z,13.27
2023-01-24T18:06:18.127Z,12.13
2023-01-24T18:08:46.972Z,12.10
2023-01-24T18:11:16.835Z,13.33
2023-01-24T18:13:45.119Z,11.57
2023-01-24T18:16:15.078Z,13.03
2023-01-24T18:18:43.323Z,11.90
2023-01-24T18:21:14.060Z,13.13
2023-01-24T18:23:41.939Z,11.47
2023-01-24T18:26:10.269Z,12.70
2023-01-24T18:28:38.763Z,13.47
2023-01-24T18:31:11.428Z,12.97
2023-01-24T18:33:40.084Z,13.60
2023-01-24T18:36:09.402Z,16.30
2023-01-24T18:38:39.093Z,15.13
2023-01-24T18:41:07.132Z,15.10
2023-01-24T18:43:37.259Z,12.83
2023-01-24T18:46:06.629Z,12.23
2023-01-24T18:48:35.119Z,14.70
2023-01-24T18:51:06.123Z,13.40
2023-01-24T18:53:34.070Z,14.17
2023-01-24T18:56:05.137Z,13.03
2023-01-24T18:58:34.876Z,13.60
2023-01-24T19:01:10.853Z,15.07
2023-01-24T19:03:39.000Z,14.37
2023-01-24T19:06:08.155Z,14.47
2023-01-24T19:08:36.445Z,13.13
2023-01-24T19:11:12.525Z,12.87
2023-01-24T19:13:41.996Z,14.40
2023-01-24T19:16:10.782Z,12.87
2023-01-24T19:18:39.382Z,12.37
2023-01-24T19:21:08.579Z,14.00
2023-01-24T19:23:37.785Z,16.00
2023-01-24T19:26:06.648Z,12.00
2023-01-24T19:28:36.859Z,12.80
2023-01-24T19:31:06.295Z,14.03
2023-01-24T19:33:34.588Z,12.77
2023-01-24T19:36:06.229Z,13.83
2023-01-24T19:38:34.581Z,14.67
2023-01-24T19:41:04.139Z,13.27
2023-01-24T19:43:31.976Z,15.10
2023-01-24T19:48:52.153Z,17.90
2023-01-24T19:51:20.515Z,13.57
2023-01-24T19:53:50.719Z,13.97
2023-01-24T19:56:19.171Z,13.70
2023-01-24T19:58:47.239Z,17.90
2023-01-24T20:01:19.745Z,16.67
2023-01-24T20:03:47.933Z,14.63
2023-01-24T20:06:18.139Z,17.20
2023-01-24T20:08:47.164Z,16.50
2023-01-24T20:11:15.418Z,15.63
2023-01-24T20:13:43.900Z,14.83
2023-01-24T20:16:18.030Z,17.63
2023-01-24T20:18:50.078Z,16.73
2023-01-24T20:21:18.494Z,17.57
2023-01-24T20:23:46.717Z,17.77
2023-01-24T20:26:16.155Z,14.43
2023-01-24T20:28:44.611Z,17.00
2023-01-24T20:31:14.691Z,17.10
2023-01-24T20:33:44.074Z,16.90
2023-01-24T20:36:13.775Z,15.67
2023-01-24T20:38:42.565Z,15.57
2023-01-24T20:41:13.550Z,17.57
2023-01-24T20:43:42.574Z,13.70
2023-01-24T20:46:20.050Z,16.17
2023-01-24T20:48:50.643Z,15.73
2023-01-24T20:51:18.965Z,17.13
2023-01-24T20:53:47.109Z,16.27
2023-01-24T20:56:18.413Z,20.50
2023-01-24T20:58:46.691Z,17.80
2023-01-24T21:01:16.873Z,19.57
2023-01-24T21:03:45.117Z,21.70
2023-01-24T21:06:16.999Z,21.13
2023-01-24T21:08:45.861Z,24.23
2023-01-24T21:11:18.621Z,21.67
2023-01-24T21:13:51.295Z,21.27
2023-01-24T21:16:19.916Z,23.77
2023-01-24T21:18:51.514Z,24.67
2023-01-24T21:21:23.417Z,27.83
2023-01-24T21:23:51.775Z,30.13
2023-01-24T21:26:21.085Z,29.13
2023-01-24T21:28:51.127Z,26.23
2023-01-24T21:31:21.405Z,20.37
2023-01-24T21:33:57.114Z,17.93
2023-01-24T21:36:28.377Z,22.87
2023-01-24T21:38:56.296Z,18.03
2023-01-24T21:41:41.954Z,17.20
2023-01-24T21:44:10.937Z,21.50
2023-01-24T21:46:38.949Z,21.23
2023-01-24T21:49:07.170Z,20.87
2023-01-24T21:51:39.157Z,20.40
2023-01-24T21:54:08.218Z,18.17
2023-01-24T21:56:55.828Z,23.17
2023-01-24T21:59:25.712Z,25.27
2023-01-24T22:01:56.438Z,21.97
2023-01-24T22:04:31.143Z,20.83
2023-01-24T22:07:01.314Z,21.37
2023-01-24T22:09:31.916Z,20.33
2023-01-24T22:11:59.979Z,23.97
2023-01-24T22:14:30.148Z,29.30
2023-01-24T22:17:00.501Z,26.93
2023-01-24T22:19:41.029Z,29.20
2023-01-24T22:22:28.759Z,24.27
2023-01-24T22:25:06.155Z,22.70
2023-01-24T22:27:35.647Z,20.73
2023-01-24T22:30:05.070Z,16.70
2023-01-24T22:32:33.491Z,20.20
2023-01-24T22:35:01.964Z,20.23
2023-01-24T22:37:35.811Z,18.90
2023-01-24T22:40:03.745Z,22.20
2023-01-24T22:42:31.673Z,17.50
2023-01-24T22:44:59.611Z,20.47
2023-01-24T22:47:27.852Z,17.73
2023-01-24T22:49:55.629Z,17.67
2023-01-24T22:52:23.555Z,18.73
2023-01-24T22:54:52.942Z,20.03
2023-01-24T22:57:22.339Z,18.17
2023-01-24T22:59:52.291Z,20.87
2023-01-24T23:02:20.275Z,19.43
2023-01-24T23:04:48.106Z,18.80
2023-01-24T23:07:18.257Z,23.57
2023-01-24T23:09:47.432Z,19.47
2023-01-24T23:12:33.916Z,21.97
2023-01-24T23:15:19.163Z,21.10
2023-01-24T23:17:49.338Z,23.87
2023-01-24T23:23:26.514Z,21.43
2023-01-24T23:25:54.553Z,19.60
2023-01-24T23:28:25.991Z,19.07
2023-01-24T23:31:00.858Z,21.50
2023-01-24T23:33:34.070Z,20.57
2023-01-24T23:36:03.006Z,18.83
2023-01-24T23:38:31.262Z,20.00
2023-01-24T23:40:59.245Z,20.07
2023-01-24T23:46:20.344Z,23.63
2023-01-24T23:48:49.055Z,23.43
2023-01-24T23:51:17.034Z,22.23
2023-01-24T23:53:45.903Z,20.57
2023-01-24T23:56:13.802Z,23.40
2023-01-24T23:58:43.308Z,20.87
